Time;durP1;ratioP1;P1;durP2;ratioP2;P2;SDS_P1;SDS_P2;PMS_P1;PMS_P2;Temp;Humidity;BMP_temperature;BMP_pressure;BME280_temperature;BME280_humidity;BME280_pressure;Samples;Min_cycle;Max_cycle;Signal;HPM_P1;HPM_P2
2021/07/22 00:00:05;;;;;;;9.23;7.57;;;23.10;74.30;;;;;;5019759;28;20446;-73
2021/07/22 00:02:30;;;;;;;7.53;6.80;;;23.00;74.20;;;;;;5021734;28;20423;-75
2021/07/22 00:04:56;;;;;;;8.60;7.33;;;22.70;75.40;;;;;;5020011;28;20586;-75
2021/07/22 00:07:22;;;;;;;10.77;9.70;;;22.80;75.60;;;;;;5016871;28;20227;-74
2021/07/22 00:09:48;;;;;;;8.33;7.50;;;22.70;75.60;;;;;;5021086;28;20897;-75
2021/07/22 00:12:14;;;;;;;11.70;7.20;;;22.90;75.60;;;;;;5016073;28;20462;-73
2021/07/22 00:14:41;;;;;;;10.00;7.80;;;22.90;75.80;;;;;;5015992;28;20208;-75
2021/07/22 00:17:08;;;;;;;9.10;7.40;;;22.80;76.10;;;;;;5014528;28;20577;-75
2021/07/22 00:19:34;;;;;;;8.23;7.53;;;22.70;77.00;;;;;;5014381;28;20451;-74
2021/07/22 00:22:00;;;;;;;12.10;8.00;;;22.60;77.70;;;;;;5018095;28;20446;-73
2021/07/22 00:24:26;;;;;;;7.47;6.70;;;22.70;77.60;;;;;;4991454;28;20482;-75
2021/07/22 00:26:52;;;;;;;9.00;8.10;;;22.70;77.70;;;;;;5020990;28;20216;-75
2021/07/22 00:29:18;;;;;;;7.93;7.13;;;22.70;78.20;;;;;;5017016;28;20431;-73
2021/07/22 00:31:44;;;;;;;8.23;7.43;;;22.60;78.60;;;;;;5020874;28;20573;-75
2021/07/22 00:34:09;;;;;;;10.73;8.23;;;22.50;79.00;;;;;;5017043;28;20297;-74
2021/07/22 00:36:35;;;;;;;9.07;7.77;;;22.40;79.60;;;;;;5017119;28;20212;-72
2021/07/22 00:39:00;;;;;;;9.10;7.50;;;22.50;80.30;;;;;;5020587;28;20220;-76
2021/07/22 00:41:26;;;;;;;12.83;8.37;;;22.60;80.60;;;;;;5015565;28;20205;-76
2021/07/22 00:43:52;;;;;;;8.60;7.70;;;22.50;81.00;;;;;;5019659;28;20204;-74
2021/07/22 00:46:18;;;;;;;11.23;8.30;;;22.50;81.30;;;;;;5015977;28;20239;-75
2021/07/22 00:48:43;;;;;;;9.50;8.13;;;22.40;81.90;;;;;;5018599;28;20241;-75
2021/07/22 00:51:09;;;;;;;12.23;8.33;;;22.30;82.50;;;;;;4980113;28;20204;-73
2021/07/22 00:53:35;;;;;;;8.50;7.60;;;22.30;82.50;;;;;;5017274;28;20267;-73
2021/07/22 00:56:02;;;;;;;8.83;7.60;;;22.30;83.30;;;;;;5013235;28;20201;-75
2021/07/22 00:58:28;;;;;;;8.53;7.73;;;22.30;83.30;;;;;;5015127;28;20501;-74
2021/07/22 01:00:53;;;;;;;10.87;8.17;;;22.10;83.70;;;;;;5017167;28;20443;-74
2021/07/22 01:03:19;;;;;;;10.07;8.20;;;22.10;84.50;;;;;;5003749;28;20199;-73
2021/07/22 01:05:45;;;;;;;13.80;7.77;;;22.00;84.90;;;;;;5017635;28;20223;-75
2021/07/22 01:08:12;;;;;;;8.70;7.70;;;21.90;85.20;;;;;;5018727;28;20243;-76
2021/07/22 01:10:37;;;;;;;10.10;8.00;;;22.10;86.00;;;;;;5000543;28;20849;-74
2021/07/22 01:13:03;;;;;;;8.17;7.07;;;22.10;85.80;;;;;;5013358;28;20490;-75
2021/07/22 01:15:30;;;;;;;8.77;7.90;;;22.20;85.80;;;;;;5019331;28;20212;-76
2021/07/22 01:17:56;;;;;;;9.17;8.00;;;22.10;85.70;;;;;;5014603;28;20188;-75
2021/07/22 01:20:23;;;;;;;12.57;8.27;;;21.90;86.90;;;;;;4995929;28;20451;-74
2021/07/22 01:22:53;;;;;;;10.33;7.90;;;22.00;87.60;;;;;;5013910;28;20243;-74
2021/07/22 01:25:19;;;;;;;9.47;8.57;;;21.80;88.00;;;;;;5017790;28;20463;-76
2021/07/22 01:27:45;;;;;;;9.80;7.10;;;21.80;88.40;;;;;;5015214;28;20470;-74
2021/07/22 01:30:12;;;;;;;9.37;7.57;;;21.90;88.40;;;;;;5013835;28;20783;-73
2021/07/22 01:32:38;;;;;;;10.70;7.60;;;21.90;88.50;;;;;;5004557;28;20461;-74
2021/07/22 01:35:05;;;;;;;12.23;8.07;;;21.80;88.70;;;;;;5022230;28;20969;-72
2021/07/22 01:37:31;;;;;;;10.97;8.20;;;21.70;89.20;;;;;;5022859;28;20517;-75
2021/07/22 01:39:57;;;;;;;8.43;7.63;;;21.80;89.60;;;;;;5024606;28;20446;-74
2021/07/22 01:42:22;;;;;;;8.83;7.93;;;21.70;89.60;;;;;;5022771;28;20708;-75
2021/07/22 01:44:48;;;;;;;8.73;7.63;;;21.60;90.60;;;;;;5022424;28;21221;-74
2021/07/22 01:47:14;;;;;;;7.60;6.80;;;21.50;90.50;;;;;;5019579;28;20266;-74
2021/07/22 01:49:40;;;;;;;8.23;7.43;;;21.60;90.40;;;;;;5020545;28;20646;-73
2021/07/22 01:52:06;;;;;;;10.43;8.23;;;21.70;90.30;;;;;;5021874;28;20193;-76
2021/07/22 01:54:32;;;;;;;8.57;7.03;;;21.40;90.30;;;;;;5022335;28;20258;-75
2021/07/22 01:56:59;;;;;;;9.43;6.90;;;21.40;90.90;;;;;;5020526;28;20188;-75
2021/07/22 01:59:25;;;;;;;12.10;8.03;;;21.40;90.80;;;;;;5016931;28;22053;-75
2021/07/22 02:01:51;;;;;;;7.87;7.10;;;21.50;91.00;;;;;;5022621;28;20960;-75
2021/07/22 02:04:16;;;;;;;8.47;7.47;;;21.50;90.90;;;;;;5059968;22;20496;-72
2021/07/22 02:06:42;;;;;;;10.43;7.53;;;21.60;90.90;;;;;;4997572;28;20678;-76
2021/07/22 02:09:08;;;;;;;16.13;7.53;;;21.60;90.80;;;;;;4993296;28;20194;-73
2021/07/22 02:11:33;;;;;;;9.00;7.50;;;21.60;91.10;;;;;;4994845;28;20197;-73
2021/07/22 02:13:59;;;;;;;8.80;7.57;;;21.70;91.00;;;;;;4993153;28;20202;-75
2021/07/22 02:16:25;;;;;;;9.40;6.97;;;21.50;91.30;;;;;;4975988;28;20751;-74
2021/07/22 02:18:50;;;;;;;9.20;8.10;;;21.50;91.40;;;;;;4993939;28;20193;-75
2021/07/22 02:21:16;;;;;;;8.57;7.73;;;21.50;91.40;;;;;;4989880;28;20273;-74
2021/07/22 02:23:42;;;;;;;8.33;6.53;;;21.40;91.80;;;;;;4988940;28;20574;-74
2021/07/22 02:26:08;;;;;;;8.60;7.03;;;21.40;92.10;;;;;;4991267;28;21449;-75
2021/07/22 02:28:38;;;;;;;11.20;7.60;;;21.40;92.30;;;;;;4996243;28;20184;-74
2021/07/22 02:31:03;;;;;;;7.67;6.80;;;21.40;92.40;;;;;;4995641;28;20570;-75
2021/07/22 02:33:29;;;;;;;8.13;7.33;;;21.30;92.50;;;;;;4994329;28;20980;-74
2021/07/22 02:35:59;;;;;;;10.23;7.87;;;21.20;93.00;;;;;;4989430;28;20181;-74
2021/07/22 02:38:24;;;;;;;11.23;7.67;;;21.30;93.30;;;;;;4992213;28;20323;-75
2021/07/22 02:40:50;;;;;;;9.93;8.93;;;21.30;93.10;;;;;;4995264;28;20526;-74
2021/07/22 02:43:16;;;;;;;8.67;7.83;;;21.30;93.50;;;;;;4990030;28;20759;-73
2021/07/22 02:45:44;;;;;;;8.53;7.63;;;21.30;93.60;;;;;;4993164;28;20771;-73
2021/07/22 02:48:10;;;;;;;10.03;8.27;;;21.20;93.80;;;;;;4991680;28;20582;-73
2021/07/22 02:50:36;;;;;;;10.13;7.50;;;21.10;94.20;;;;;;4972605;28;20509;-74
2021/07/22 02:53:02;;;;;;;9.83;7.17;;;21.00;94.50;;;;;;4991735;28;20193;-74
2021/07/22 02:55:28;;;;;;;9.70;7.43;;;21.00;94.60;;;;;;4993181;28;20211;-74
2021/07/22 02:57:54;;;;;;;10.10;7.87;;;20.80;95.10;;;;;;4988792;28;20937;-73
2021/07/22 03:00:19;;;;;;;9.33;7.60;;;20.80;95.30;;;;;;4989256;28;20201;-74
2021/07/22 03:02:45;;;;;;;9.50;6.90;;;20.80;95.40;;;;;;4993765;28;20250;-75
2021/07/22 03:05:11;;;;;;;9.30;7.80;;;20.70;95.60;;;;;;4992434;28;20341;-75
2021/07/22 03:07:37;;;;;;;9.83;7.80;;;20.80;95.70;;;;;;4976211;28;20405;-76
2021/07/22 03:10:03;;;;;;;8.50;7.47;;;20.70;95.80;;;;;;4992206;28;20544;-76
2021/07/22 03:12:29;;;;;;;8.00;7.20;;;20.60;96.10;;;;;;4990785;28;20225;-75
2021/07/22 03:14:55;;;;;;;8.63;7.80;;;20.60;96.20;;;;;;4993707;28;20496;-75
2021/07/22 03:17:21;;;;;;;8.07;7.37;;;20.50;96.80;;;;;;4994057;28;20204;-77
2021/07/22 03:19:47;;;;;;;9.00;8.10;;;20.50;96.80;;;;;;4991688;28;20734;-73
2021/07/22 03:22:14;;;;;;;8.93;7.30;;;20.50;96.70;;;;;;4993908;28;20217;-74
2021/07/22 03:24:39;;;;;;;8.87;7.10;;;20.40;96.70;;;;;;4972892;28;20533;-72
2021/07/22 03:27:05;;;;;;;8.97;7.50;;;20.40;97.10;;;;;;4994836;28;20883;-76
2021/07/22 03:29:32;;;;;;;15.40;8.07;;;20.50;97.20;;;;;;4993412;28;20621;-74
2021/07/22 03:31:59;;;;;;;8.43;7.30;;;20.50;97.30;;;;;;4985192;28;20185;-75
2021/07/22 03:34:25;;;;;;;8.83;7.23;;;20.40;97.30;;;;;;5002133;28;20442;-73
2021/07/22 03:36:50;;;;;;;10.03;7.90;;;20.50;97.50;;;;;;5023530;28;20448;-73
2021/07/22 03:39:16;;;;;;;7.87;7.17;;;20.50;97.50;;;;;;5014149;28;20220;-73
2021/07/22 03:41:47;;;;;;;11.93;7.60;;;20.60;97.70;;;;;;5017192;28;20215;-73
2021/07/22 03:44:14;;;;;;;11.37;7.77;;;20.40;98.00;;;;;;5011531;28;20276;-72
2021/07/22 03:46:40;;;;;;;8.13;7.33;;;20.50;98.00;;;;;;5006431;28;20461;-73
2021/07/22 03:49:06;;;;;;;9.73;8.40;;;20.50;98.10;;;;;;4956730;28;20437;-73
2021/07/22 03:51:31;;;;;;;10.30;7.37;;;20.60;98.10;;;;;;4992931;28;20208;-75
2021/07/22 03:53:57;;;;;;;10.13;7.13;;;20.70;98.00;;;;;;4992653;28;20288;-73
2021/07/22 03:56:25;;;;;;;7.80;7.00;;;20.50;98.50;;;;;;4991919;28;20292;-73
2021/07/22 03:58:52;;;;;;;8.80;7.90;;;20.60;98.60;;;;;;4992582;28;20621;-76
2021/07/22 04:01:18;;;;;;;12.77;8.57;;;20.60;98.40;;;;;;4988128;28;20455;-75
2021/07/22 04:03:47;;;;;;;9.07;7.53;;;20.70;98.50;;;;;;4993175;28;20534;-75
2021/07/22 04:06:13;;;;;;;8.23;7.43;;;20.80;98.60;;;;;;4988245;28;20236;-75
2021/07/22 04:08:39;;;;;;;7.20;6.50;;;20.60;98.30;;;;;;4992812;28;20891;-75
2021/07/22 04:11:06;;;;;;;8.47;7.53;;;20.70;98.60;;;;;;4992373;28;20443;-75
2021/07/22 04:13:32;;;;;;;8.63;7.57;;;20.70;98.70;;;;;;4992242;28;20872;-75
2021/07/22 04:16:02;;;;;;;8.07;7.27;;;20.60;98.80;;;;;;4993625;28;20467;-74
2021/07/22 04:18:28;;;;;;;9.37;7.73;;;20.70;98.90;;;;;;4988592;28;20544;-75
2021/07/22 04:20:54;;;;;;;10.27;8.20;;;20.60;99.10;;;;;;4992411;28;20528;-74
2021/07/22 04:23:20;;;;;;;10.80;7.77;;;20.60;99.20;;;;;;4991266;28;20186;-76
2021/07/22 04:25:48;;;;;;;8.70;6.70;;;20.50;99.40;;;;;;4991209;28;20264;-75
2021/07/22 04:28:14;;;;;;;8.03;7.23;;;20.60;99.30;;;;;;4989781;28;20562;-75
2021/07/22 04:30:43;;;;;;;7.83;7.07;;;20.70;99.30;;;;;;4973666;28;20536;-75
2021/07/22 04:33:08;;;;;;;9.83;7.83;;;20.70;99.30;;;;;;4988296;28;20186;-76
2021/07/22 04:35:34;;;;;;;9.30;7.23;;;20.60;99.80;;;;;;4991484;28;20551;-76
2021/07/22 04:38:00;;;;;;;8.80;7.90;;;20.50;99.90;;;;;;4990250;28;20283;-75
2021/07/22 04:40:26;;;;;;;9.80;6.90;;;20.40;99.90;;;;;;4991108;28;20567;-74
2021/07/22 04:42:51;;;;;;;8.70;7.40;;;20.60;99.90;;;;;;4992778;28;20467;-76
2021/07/22 04:45:17;;;;;;;8.10;7.23;;;20.60;99.90;;;;;;4988370;28;20921;-75
2021/07/22 04:47:43;;;;;;;11.13;7.57;;;20.60;99.90;;;;;;4991461;28;20758;-74
2021/07/22 04:50:09;;;;;;;7.90;6.87;;;20.50;99.90;;;;;;4992229;28;20734;-75
2021/07/22 04:52:35;;;;;;;7.90;7.10;;;20.60;99.90;;;;;;4984814;28;20185;-73
2021/07/22 04:55:01;;;;;;;9.90;7.13;;;20.70;99.90;;;;;;4988449;28;21001;-75
2021/07/22 04:57:27;;;;;;;10.00;7.70;;;20.70;99.90;;;;;;4974881;28;20221;-74
2021/07/22 04:59:53;;;;;;;9.03;8.10;;;20.70;99.90;;;;;;4987006;28;20473;-73
2021/07/22 05:02:21;;;;;;;8.40;7.60;;;20.60;99.90;;;;;;4990458;28;20189;-77
2021/07/22 05:04:47;;;;;;;8.13;6.70;;;20.50;99.90;;;;;;4991501;28;20233;-75
2021/07/22 05:07:12;;;;;;;8.13;7.17;;;20.60;99.90;;;;;;4993422;28;20994;-76
2021/07/22 05:09:38;;;;;;;8.70;7.13;;;20.50;99.90;;;;;;4975520;28;20208;-76
2021/07/22 05:12:08;;;;;;;8.93;7.77;;;20.60;99.90;;;;;;4992124;28;20189;-75
2021/07/22 05:14:34;;;;;;;7.17;6.57;;;20.70;99.90;;;;;;4992164;28;20532;-74
2021/07/22 05:17:00;;;;;;;8.83;7.93;;;20.70;99.90;;;;;;4993120;28;20439;-74
2021/07/22 05:19:25;;;;;;;12.80;7.50;;;20.60;99.90;;;;;;4993112;28;20531;-73
2021/07/22 05:21:51;;;;;;;13.90;7.90;;;20.50;99.90;;;;;;4991482;28;20453;-76
2021/07/22 05:24:17;;;;;;;8.10;7.40;;;20.30;99.90;;;;;;4980541;28;20213;-72
2021/07/22 05:26:43;;;;;;;10.00;7.63;;;20.50;99.90;;;;;;4990768;28;20221;-74
2021/07/22 05:29:08;;;;;;;8.93;7.90;;;20.50;99.90;;;;;;4991938;28;20194;-74
2021/07/22 05:31:34;;;;;;;11.00;8.60;;;20.40;99.90;;;;;;4987779;28;20459;-76
2021/07/22 05:34:00;;;;;;;10.10;7.60;;;20.30;99.90;;;;;;4993459;28;20217;-75
2021/07/22 05:36:26;;;;;;;9.00;7.70;;;20.30;99.90;;;;;;4988149;28;20745;-76
2021/07/22 05:38:51;;;;;;;11.50;8.00;;;20.30;99.90;;;;;;4993914;28;20547;-75
2021/07/22 05:41:17;;;;;;;8.23;7.43;;;20.30;99.90;;;;;;4991661;28;20189;-74
2021/07/22 05:43:43;;;;;;;8.70;7.80;;;20.30;99.90;;;;;;4990371;28;20197;-73
2021/07/22 05:46:09;;;;;;;8.40;7.50;;;20.30;99.90;;;;;;4989274;28;20198;-74
2021/07/22 05:48:35;;;;;;;9.73;8.37;;;20.40;99.90;;;;;;4990612;28;20436;-74
2021/07/22 05:51:02;;;;;;;9.33;7.80;;;20.40;99.90;;;;;;4991162;28;20232;-77
2021/07/22 05:53:27;;;;;;;8.47;7.50;;;20.50;99.90;;;;;;4989165;28;20733;-75
2021/07/22 05:55:57;;;;;;;9.37;7.33;;;20.50;99.90;;;;;;4985556;28;20473;-74
2021/07/22 05:58:23;;;;;;;8.90;8.00;;;20.50;99.90;;;;;;4993213;28;20189;-76
2021/07/22 06:00:48;;;;;;;8.23;7.37;;;20.50;99.90;;;;;;4994985;28;20441;-75
2021/07/22 06:03:14;;;;;;;8.47;7.50;;;20.40;99.90;;;;;;4997913;28;20185;-74
2021/07/22 06:05:40;;;;;;;9.53;7.47;;;20.40;99.90;;;;;;4991477;28;20244;-74
2021/07/22 06:08:08;;;;;;;12.90;7.20;;;20.50;99.90;;;;;;4990529;28;20705;-75
2021/07/22 06:10:34;;;;;;;8.63;7.30;;;20.50;99.90;;;;;;4979128;28;20194;-74
2021/07/22 06:12:59;;;;;;;8.30;6.80;;;20.30;99.90;;;;;;4985924;28;20553;-74
2021/07/22 06:15:25;;;;;;;8.40;7.17;;;20.60;99.90;;;;;;4987443;28;20271;-74
2021/07/22 06:17:51;;;;;;;9.33;8.37;;;20.60;99.90;;;;;;4984154;28;20196;-73
2021/07/22 06:20:17;;;;;;;11.53;7.47;;;20.70;99.90;;;;;;4984065;28;20280;-75
2021/07/22 06:22:46;;;;;;;12.97;6.90;;;20.70;99.90;;;;;;4969937;28;20209;-75
2021/07/22 06:25:13;;;;;;;10.20;7.53;;;20.80;99.90;;;;;;4990767;28;20523;-75
2021/07/22 06:27:39;;;;;;;10.60;7.47;;;21.00;99.90;;;;;;4986391;28;21025;-74
2021/07/22 06:30:06;;;;;;;8.03;7.23;;;20.90;99.90;;;;;;4992775;28;20444;-75
2021/07/22 06:32:31;;;;;;;8.87;7.60;;;20.80;99.90;;;;;;4988455;28;20554;-73
2021/07/22 06:34:57;;;;;;;8.57;7.50;;;20.90;99.90;;;;;;4990209;28;20555;-72
2021/07/22 06:37:23;;;;;;;7.60;6.47;;;20.90;99.90;;;;;;4998001;28;20189;-74
2021/07/22 06:39:48;;;;;;;8.70;7.20;;;21.00;99.90;;;;;;4988944;28;20196;-75
2021/07/22 06:42:14;;;;;;;10.63;7.30;;;21.10;99.90;;;;;;4989908;28;20185;-74
2021/07/22 06:44:39;;;;;;;8.57;7.77;;;21.00;99.90;;;;;;4994711;28;20675;-74
2021/07/22 06:47:05;;;;;;;8.90;7.57;;;21.00;99.90;;;;;;4989826;28;20209;-74
2021/07/22 06:49:31;;;;;;;8.50;7.13;;;21.00;99.90;;;;;;4990169;28;20565;-74
2021/07/22 06:51:58;;;;;;;11.70;7.90;;;21.00;99.90;;;;;;4975934;28;20715;-74
2021/07/22 06:54:24;;;;;;;10.80;7.97;;;21.20;99.90;;;;;;4994623;28;20763;-74
2021/07/22 06:56:50;;;;;;;9.67;7.87;;;21.30;99.90;;;;;;4992996;28;20432;-73
2021/07/22 06:59:18;;;;;;;12.77;7.80;;;21.30;99.90;;;;;;4991118;28;20189;-73
2021/07/22 07:01:44;;;;;;;10.33;7.90;;;21.50;99.90;;;;;;4992698;28;20197;-73
2021/07/22 07:04:10;;;;;;;9.17;7.10;;;21.40;99.90;;;;;;4973471;28;20522;-73
2021/07/22 07:06:36;;;;;;;9.30;8.30;;;21.50;99.90;;;;;;4996798;28;20236;-75
2021/07/22 07:09:05;;;;;;;9.17;8.27;;;21.40;99.90;;;;;;4989972;28;20217;-74
2021/07/22 07:11:32;;;;;;;9.03;7.83;;;21.60;99.90;;;;;;4991998;28;20448;-73
2021/07/22 07:13:57;;;;;;;8.27;7.37;;;21.60;99.90;;;;;;4989980;28;20504;-74
2021/07/22 07:16:23;;;;;;;11.00;7.20;;;21.70;99.90;;;;;;4989609;28;20946;-75
2021/07/22 07:18:49;;;;;;;11.07;8.10;;;21.70;99.90;;;;;;4990931;28;20202;-75
2021/07/22 07:21:15;;;;;;;13.67;7.73;;;21.80;99.90;;;;;;4984157;28;20247;-74
2021/07/22 07:23:41;;;;;;;8.50;7.13;;;21.70;99.90;;;;;;4989760;28;20196;-74
2021/07/22 07:26:11;;;;;;;9.37;7.43;;;21.70;99.90;;;;;;4991445;28;20441;-74
2021/07/22 07:28:37;;;;;;;16.33;8.33;;;21.90;99.90;;;;;;4993279;28;20181;-74
2021/07/22 07:31:03;;;;;;;11.60;8.20;;;21.90;99.90;;;;;;4985937;28;20497;-74
2021/07/22 07:33:29;;;;;;;9.43;7.27;;;21.90;99.90;;;;;;4994235;28;20478;-75
2021/07/22 07:35:56;;;;;;;10.80;7.50;;;21.90;99.90;;;;;;4987575;28;21146;-73
2021/07/22 07:38:23;;;;;;;7.97;7.17;;;21.90;99.90;;;;;;4984935;28;20867;-75
2021/07/22 07:40:48;;;;;;;8.90;8.00;;;21.80;99.90;;;;;;4987179;28;20437;-75
2021/07/22 07:43:15;;;;;;;10.63;8.13;;;22.00;99.90;;;;;;4985898;28;20445;-74
2021/07/22 07:45:41;;;;;;;15.33;7.97;;;22.00;99.90;;;;;;4984541;28;20877;-74
2021/07/22 07:48:07;;;;;;;13.80;8.87;;;22.00;99.90;;;;;;4981351;28;20479;-74
2021/07/22 07:50:33;;;;;;;21.77;10.33;;;22.10;99.90;;;;;;4986813;28;21000;-74
2021/07/22 07:52:58;;;;;;;9.50;8.37;;;22.10;99.90;;;;;;4982868;28;20185;-75
2021/07/22 07:55:27;;;;;;;11.80;10.17;;;22.20;99.90;;;;;;4984099;28;20249;-75
2021/07/22 07:57:55;;;;;;;20.10;14.43;;;22.40;99.90;;;;;;4985796;28;20193;-75
2021/07/22 08:00:21;;;;;;;10.20;7.80;;;22.30;99.90;;;;;;4985033;28;20550;-75
2021/07/22 08:02:47;;;;;;;13.00;9.43;;;22.40;99.90;;;;;;4970958;28;20452;-75
2021/07/22 08:05:13;;;;;;;11.43;8.40;;;22.50;99.90;;;;;;4981782;28;20312;-74
2021/07/22 08:07:39;;;;;;;11.13;8.50;;;22.60;99.90;;;;;;4985192;28;21162;-75
2021/07/22 08:10:05;;;;;;;12.67;9.80;;;22.60;99.90;;;;;;4971570;28;20197;-75
2021/07/22 08:12:31;;;;;;;13.17;10.37;;;22.60;99.90;;;;;;4985899;28;20189;-72
2021/07/22 08:14:57;;;;;;;9.27;6.70;;;22.60;99.90;;;;;;4985572;28;20452;-74
2021/07/22 08:17:25;;;;;;;10.90;9.70;;;22.80;99.90;;;;;;4992350;28;20245;-73
2021/07/22 08:19:53;;;;;;;11.10;9.40;;;22.70;99.90;;;;;;4987812;28;20182;-75
2021/07/22 08:22:19;;;;;;;14.50;11.30;;;22.60;99.90;;;;;;4964384;28;20544;-74
2021/07/22 08:24:48;;;;;;;11.40;9.27;;;22.70;99.90;;;;;;4975402;28;20554;-75
2021/07/22 08:27:13;;;;;;;14.93;12.17;;;22.80;99.90;;;;;;4989847;28;20217;-75
2021/07/22 08:29:39;;;;;;;12.37;7.80;;;22.90;99.90;;;;;;4989196;28;20974;-74
2021/07/22 08:32:05;;;;;;;13.00;8.90;;;23.00;99.90;;;;;;4991208;28;20193;-76
2021/07/22 08:34:31;;;;;;;15.37;11.50;;;23.00;99.90;;;;;;4990079;28;20471;-74
2021/07/22 08:36:57;;;;;;;11.47;9.30;;;23.00;99.90;;;;;;4991938;28;20452;-74
2021/07/22 08:39:22;;;;;;;12.07;10.77;;;23.10;99.90;;;;;;4992128;28;20888;-76
2021/07/22 08:41:48;;;;;;;11.73;8.27;;;23.10;99.90;;;;;;4991068;28;20193;-75
2021/07/22 08:44:17;;;;;;;13.27;9.57;;;23.10;99.90;;;;;;4991328;28;20236;-74
2021/07/22 08:46:45;;;;;;;9.53;8.60;;;23.10;99.90;;;;;;4994109;28;20232;-74
2021/07/22 08:49:11;;;;;;;9.77;8.37;;;23.10;99.90;;;;;;4988810;28;20538;-74
2021/07/22 08:51:37;;;;;;;11.90;9.50;;;23.20;99.90;;;;;;4986846;28;20891;-75
2021/07/22 08:54:03;;;;;;;11.47;9.30;;;23.10;99.90;;;;;;4988704;28;20522;-75
2021/07/22 08:56:32;;;;;;;10.87;9.80;;;23.20;99.90;;;;;;4994231;28;20251;-75
2021/07/22 08:59:00;;;;;;;11.03;8.13;;;23.10;99.90;;;;;;4989072;28;20460;-75
2021/07/22 09:01:28;;;;;;;11.17;8.40;;;23.30;99.90;;;;;;4991775;28;20966;-74
2021/07/22 09:03:57;;;;;;;9.47;7.20;;;23.40;99.90;;;;;;4981567;28;20547;-74
2021/07/22 09:06:23;;;;;;;11.13;8.03;;;23.50;99.90;;;;;;4995609;28;20582;-73
2021/07/22 09:08:49;;;;;;;9.60;7.30;;;23.60;99.80;;;;;;5011123;28;20463;-74
2021/07/22 09:11:15;;;;;;;10.40;8.43;;;23.60;99.40;;;;;;4992035;28;20183;-72
2021/07/22 09:13:40;;;;;;;10.10;8.00;;;23.70;99.20;;;;;;5008786;28;20202;-75
2021/07/22 09:16:08;;;;;;;8.97;7.60;;;23.80;99.40;;;;;;4992876;28;20721;-76
2021/07/22 09:18:38;;;;;;;9.33;7.90;;;23.80;99.30;;;;;;4992195;28;20439;-75
2021/07/22 09:21:22;;;;;;;9.80;7.90;;;23.90;99.80;;;;;;4988778;28;21213;-74
2021/07/22 09:24:04;;;;;;;10.60;8.00;;;23.90;99.30;;;;;;4991961;28;20798;-76
2021/07/22 09:26:32;;;;;;;9.53;7.73;;;24.00;99.00;;;;;;4990981;28;20503;-74
2021/07/22 09:29:07;;;;;;;8.70;7.50;;;24.10;99.10;;;;;;4986239;28;20909;-75
2021/07/22 09:31:33;;;;;;;10.80;7.80;;;24.30;98.10;;;;;;4991717;28;20450;-74
2021/07/22 09:33:59;;;;;;;15.53;7.90;;;24.30;97.90;;;;;;4991092;28;20569;-73
2021/07/22 09:36:28;;;;;;;9.00;8.03;;;24.40;98.80;;;;;;4971096;28;20452;-74
2021/07/22 09:39:14;;;;;;;9.67;8.53;;;24.40;97.90;;;;;;4985793;28;20444;-76
2021/07/22 09:41:40;;;;;;;13.93;9.97;;;24.50;98.00;;;;;;4985796;28;21140;-76
2021/07/22 09:44:05;;;;;;;10.83;8.60;;;24.60;98.10;;;;;;4982325;28;20476;-73
2021/07/22 09:46:41;;;;;;;10.20;7.90;;;24.70;98.10;;;;;;4986946;28;20228;-75
2021/07/22 09:49:16;;;;;;;14.97;9.57;;;24.80;98.10;;;;;;4985546;28;20181;-74
2021/07/22 09:51:42;;;;;;;9.77;7.57;;;24.90;97.80;;;;;;4988320;28;20447;-75
2021/07/22 09:54:09;;;;;;;10.53;7.17;;;24.90;97.10;;;;;;4993611;28;21029;-73
2021/07/22 09:56:39;;;;;;;8.10;7.40;;;24.90;97.40;;;;;;4987441;28;20201;-72
2021/07/22 09:59:06;;;;;;;9.23;8.27;;;25.00;97.00;;;;;;4990460;28;20436;-75
2021/07/22 10:01:43;;;;;;;13.27;7.80;;;25.00;96.50;;;;;;4985528;28;20444;-75
2021/07/22 10:04:09;;;;;;;12.57;7.53;;;25.00;95.70;;;;;;4965507;28;20476;-76
2021/07/22 10:06:37;;;;;;;8.27;7.47;;;25.10;95.40;;;;;;4989194;28;20472;-74
2021/07/22 10:09:04;;;;;;;9.63;7.47;;;25.20;95.40;;;;;;4986506;28;20519;-76
2021/07/22 10:11:34;;;;;;;8.30;7.17;;;25.30;95.70;;;;;;4986144;28;20453;-76
2021/07/22 10:14:02;;;;;;;7.57;6.80;;;25.40;95.80;;;;;;4970727;28;20537;-74
2021/07/22 10:16:28;;;;;;;8.50;7.30;;;25.60;93.80;;;;;;4985700;28;20502;-74
2021/07/22 10:18:58;;;;;;;7.53;6.83;;;25.50;93.60;;;;;;4974534;28;20456;-75
2021/07/22 10:21:25;;;;;;;8.80;7.50;;;25.60;93.90;;;;;;4992265;28;20440;-75
2021/07/22 10:23:52;;;;;;;8.93;7.27;;;25.70;93.60;;;;;;4993079;28;20471;-76
2021/07/22 10:26:30;;;;;;;8.83;6.90;;;25.70;92.70;;;;;;4991510;28;20452;-76
2021/07/22 10:28:56;;;;;;;11.03;7.20;;;25.70;93.00;;;;;;4988498;28;20957;-77
2021/07/22 10:31:22;;;;;;;7.57;6.87;;;25.80;92.00;;;;;;4974264;28;20479;-75
2021/07/22 10:33:47;;;;;;;7.00;6.30;;;25.80;92.10;;;;;;4993859;28;20437;-74
2021/07/22 10:36:13;;;;;;;11.07;7.10;;;25.90;91.20;;;;;;4976380;28;20563;-76
2021/07/22 10:38:47;;;;;;;9.67;8.20;;;26.10;91.80;;;;;;4967220;28;20729;-73
2021/07/22 10:41:36;;;;;;;9.73;7.60;;;26.20;91.60;;;;;;4981411;28;20452;-75
2021/07/22 10:44:04;;;;;;;7.20;6.50;;;26.20;92.10;;;;;;4976492;28;20559;-73
2021/07/22 10:47:07;;;;;;;9.70;8.77;;;26.30;90.60;;;;;;4984490;28;20602;-76
2021/07/22 10:49:43;;;;;;;10.47;7.37;;;26.30;90.90;;;;;;4900433;29;20455;-75
2021/07/22 10:52:12;;;;;;;7.60;6.77;;;26.40;90.90;;;;;;4957645;28;23613;-74
2021/07/22 10:54:40;;;;;;;8.73;7.50;;;26.40;91.10;;;;;;4977657;28;21000;-74
2021/07/22 10:57:07;;;;;;;7.83;7.10;;;26.50;90.70;;;;;;4984536;28;20459;-72
2021/07/22 10:59:56;;;;;;;11.33;7.90;;;26.50;90.60;;;;;;4974419;28;20448;-73
2021/07/22 11:02:44;;;;;;;11.43;7.03;;;26.50;90.90;;;;;;4981153;28;20506;-75
2021/07/22 11:05:31;;;;;;;10.17;7.40;;;26.60;90.80;;;;;;4983365;28;20479;-72
2021/07/22 11:08:19;;;;;;;20.50;8.30;;;26.60;89.80;;;;;;4981315;28;20479;-73
2021/07/22 11:10:58;;;;;;;14.20;6.97;;;26.70;91.60;;;;;;4990591;28;20447;-73
2021/07/22 11:13:48;;;;;;;8.07;7.30;;;27.00;90.90;;;;;;4987045;28;21293;-74
2021/07/22 11:16:31;;;;;;;11.00;7.90;;;27.00;89.30;;;;;;4989827;28;20506;-73
2021/07/22 11:19:02;;;;;;;7.97;7.27;;;26.90;90.10;;;;;;4984717;28;20470;-76
2021/07/22 11:21:33;;;;;;;12.27;9.20;;;27.00;89.70;;;;;;4986341;28;20497;-72
2021/07/22 11:24:09;;;;;;;7.90;7.10;;;27.00;89.80;;;;;;4988110;28;20463;-73
2021/07/22 11:26:40;;;;;;;8.30;7.50;;;27.20;88.10;;;;;;4984867;28;20482;-73
2021/07/22 11:29:08;;;;;;;7.60;6.90;;;27.30;87.90;;;;;;4981338;28;20457;-74
2021/07/22 11:31:40;;;;;;;12.27;8.77;;;27.30;88.10;;;;;;4984317;28;20455;-73
2021/07/22 11:34:06;;;;;;;10.43;7.57;;;27.40;87.00;;;;;;4983283;28;21018;-73
2021/07/22 11:36:33;;;;;;;9.60;7.77;;;27.50;86.40;;;;;;4982057;28;20460;-73
2021/07/22 11:38:59;;;;;;;16.20;8.73;;;27.70;87.30;;;;;;4983975;28;20441;-73
2021/07/22 11:41:26;;;;;;;7.93;6.93;;;27.80;87.00;;;;;;4985860;28;20583;-72
2021/07/22 11:44:02;;;;;;;9.73;7.20;;;28.00;82.60;;;;;;4989034;28;20455;-74
2021/07/22 11:46:35;;;;;;;15.87;7.50;;;28.10;81.30;;;;;;4988032;28;20587;-75
2021/07/22 11:49:17;;;;;;;8.10;6.80;;;28.20;82.30;;;;;;4978994;28;20538;-74
2021/07/22 11:51:48;;;;;;;8.50;6.83;;;28.40;80.50;;;;;;4985286;28;20456;-74
2021/07/22 11:54:17;;;;;;;6.93;6.23;;;28.60;80.70;;;;;;4987113;28;20440;-74
2021/07/22 11:56:45;;;;;;;8.80;7.43;;;28.60;80.70;;;;;;4986032;28;20464;-74
2021/07/22 11:59:13;;;;;;;6.90;6.30;;;28.80;80.30;;;;;;4989731;28;20436;-75
2021/07/22 12:01:50;;;;;;;9.17;6.40;;;28.90;77.10;;;;;;4991918;28;20448;-73
2021/07/22 12:04:33;;;;;;;9.00;6.13;;;29.00;76.50;;;;;;4989653;28;20472;-73
2021/07/22 12:07:02;;;;;;;9.90;8.40;;;29.20;76.40;;;;;;4989070;28;20471;-74
2021/07/22 12:09:28;;;;;;;8.83;6.70;;;29.80;77.40;;;;;;4988322;28;20454;-74
2021/07/22 12:11:56;;;;;;;7.70;6.43;;;30.70;74.30;;;;;;4987861;28;20432;-72
2021/07/22 12:14:29;;;;;;;7.27;6.57;;;31.60;71.00;;;;;;4979997;28;20464;-75
2021/07/22 12:16:56;;;;;;;7.43;6.63;;;32.60;68.90;;;;;;4987486;28;20434;-74
2021/07/22 12:19:27;;;;;;;7.10;6.40;;;33.10;64.80;;;;;;4984312;28;20451;-72
2021/07/22 12:22:21;;;;;;;6.43;5.90;;;33.70;62.10;;;;;;4986607;28;20546;-74
2021/07/22 12:24:55;;;;;;;7.27;6.57;;;33.90;59.50;;;;;;4983913;28;21193;-74
2021/07/22 12:27:30;;;;;;;7.33;6.63;;;34.50;58.20;;;;;;4988100;28;20472;-75
2021/07/22 12:29:56;;;;;;;7.63;6.73;;;34.00;58.30;;;;;;4968019;28;20410;-74
2021/07/22 12:32:21;;;;;;;7.27;6.57;;;34.40;56.90;;;;;;4983648;28;20421;-74
2021/07/22 12:34:47;;;;;;;7.30;6.30;;;35.00;56.10;;;;;;4992061;28;20419;-74
2021/07/22 12:37:13;;;;;;;6.80;6.20;;;35.90;55.40;;;;;;4987259;28;20240;-74
2021/07/22 12:39:39;;;;;;;6.30;5.70;;;36.00;53.70;;;;;;4986846;28;20197;-72
2021/07/22 12:42:13;;;;;;;7.00;6.30;;;36.10;52.60;;;;;;4974921;28;20275;-73
2021/07/22 12:44:44;;;;;;;7.50;6.10;;;36.50;51.60;;;;;;4985302;28;20423;-73